Terminal Aerodrome Forecast
Issued by NWS

Home | Current Version | Previous Version | Text Only | Print | Product List | Glossary On
Versions: 1 2 3 4 5 6 7 8 9 10 11 12 13 14 15 16 17 18 19 20
000
FTUS46 KSTO 171700
TAFSCK
TAF
KSCK 171736Z 1718/1818 16008KT P6SM OVC050
     FM180200 15010KT 6SM -SHRA SCT025 OVC040
      TEMPO 1804/1808 3SM -RA BR SCT012 OVC025
     FM181300 14006KT 4SM BR VCSH OVC015=

USA.gov is the U.S. government's official web portal to all federal, state and local government web resources and services.